createdAt,value
2023-05-02T00:00:46.139Z,6.70
2023-05-02T00:03:12.764Z,5.80
2023-05-02T00:05:39.387Z,6.55
2023-05-02T00:08:05.874Z,6.75
2023-05-02T00:10:32.391Z,6.65
2023-05-02T00:12:58.922Z,5.57
2023-05-02T00:15:27.535Z,6.63
2023-05-02T00:17:54.079Z,6.20
2023-05-02T00:20:20.698Z,6.07
2023-05-02T00:22:47.205Z,6.38
2023-05-02T00:25:16.366Z,6.82
2023-05-02T00:27:47.022Z,6.53
2023-05-02T00:30:14.261Z,5.95
2023-05-02T00:32:40.863Z,7.03
2023-05-02T00:35:09.309Z,6.38
2023-05-02T00:37:36.107Z,6.63
2023-05-02T00:40:03.568Z,6.00
2023-05-02T00:42:34.675Z,6.35
2023-05-02T00:45:01.193Z,7.10
2023-05-02T00:47:27.750Z,7.65
2023-05-02T00:49:54.288Z,6.68
2023-05-02T00:52:20.962Z,7.05
2023-05-02T00:54:47.479Z,7.35
2023-05-02T00:57:14.016Z,6.90
2023-05-02T00:59:40.627Z,6.40
2023-05-02T01:02:19.189Z,6.85
2023-05-02T01:05:04.010Z,6.80
2023-05-02T01:07:49.448Z,6.63
2023-05-02T01:10:19.878Z,7.03
2023-05-02T01:12:47.433Z,6.75
2023-05-02T01:15:17.816Z,6.22
2023-05-02T01:17:44.468Z,7.25
2023-05-02T01:20:12.567Z,6.78
2023-05-02T01:22:41.967Z,6.40
2023-05-02T01:25:19.587Z,6.47
2023-05-02T01:27:58.742Z,6.70
2023-05-02T01:30:25.787Z,6.72
2023-05-02T01:32:52.617Z,6.32
2023-05-02T01:35:19.655Z,6.57
2023-05-02T01:37:46.223Z,7.53
2023-05-02T01:40:13.913Z,7.22
2023-05-02T01:42:40.521Z,7.55
2023-05-02T01:45:07.430Z,6.50
2023-05-02T01:47:35.440Z,6.25
2023-05-02T01:50:02.657Z,6.05
2023-05-02T01:52:29.648Z,6.50
2023-05-02T01:54:56.136Z,6.45
2023-05-02T01:57:22.716Z,5.70
2023-05-02T01:59:49.242Z,5.95
2023-05-02T02:02:15.807Z,5.93
2023-05-02T02:04:42.609Z,5.30
2023-05-02T02:07:10.008Z,6.47
2023-05-02T02:09:36.690Z,5.60
2023-05-02T02:12:07.330Z,5.95
2023-05-02T02:14:34.511Z,5.07
2023-05-02T02:17:01.665Z,5.55
2023-05-02T02:19:28.496Z,5.20
2023-05-02T02:21:55.132Z,4.97
2023-05-02T02:24:21.571Z,5.35
2023-05-02T02:26:48.102Z,5.00
2023-05-02T02:29:14.655Z,5.68
2023-05-02T02:31:41.285Z,4.43
2023-05-02T02:34:07.925Z,5.18
2023-05-02T02:36:35.800Z,4.28
2023-05-02T02:39:05.310Z,5.10
2023-05-02T02:41:42.802Z,4.38
2023-05-02T02:44:15.511Z,4.60
2023-05-02T02:46:48.006Z,4.95
2023-05-02T02:49:21.700Z,4.88
2023-05-02T02:51:54.389Z,4.43
2023-05-02T02:54:32.234Z,3.80
2023-05-02T02:57:00.106Z,4.28
2023-05-02T02:59:28.125Z,4.57
2023-05-02T03:02:10.279Z,4.47
2023-05-02T03:04:42.331Z,4.32
2023-05-02T03:07:08.823Z,4.53
2023-05-02T03:09:44.889Z,4.40
2023-05-02T03:12:11.625Z,3.78
2023-05-02T03:14:38.405Z,4.10
2023-05-02T03:17:05.470Z,4.28
2023-05-02T03:19:31.947Z,4.85
2023-05-02T03:21:58.451Z,4.55
2023-05-02T03:24:25.021Z,4.15
2023-05-02T03:26:52.474Z,4.47
2023-05-02T03:29:20.854Z,4.22
2023-05-02T03:31:47.366Z,4.65
2023-05-02T03:34:13.917Z,4.38
2023-05-02T03:36:40.447Z,4.38
2023-05-02T03:39:07.149Z,4.25
2023-05-02T03:41:33.691Z,4.43
2023-05-02T03:44:00.335Z,4.93
2023-05-02T03:46:26.880Z,3.78
2023-05-02T03:48:53.439Z,4.50
2023-05-02T03:51:19.989Z,4.65
2023-05-02T03:53:46.583Z,4.18
2023-05-02T03:56:13.135Z,3.80
2023-05-02T03:58:39.691Z,3.97
2023-05-02T04:01:13.295Z,4.45
2023-05-02T04:03:39.819Z,5.45
2023-05-02T04:06:07.111Z,4.75
2023-05-02T04:08:33.683Z,5.03
2023-05-02T04:11:00.184Z,4.72
2023-05-02T04:13:26.696Z,4.68
2023-05-02T04:15:53.220Z,4.53
2023-05-02T04:18:19.728Z,4.68
2023-05-02T04:20:46.387Z,4.40
2023-05-02T04:23:13.253Z,4.78
2023-05-02T04:25:39.764Z,5.30
2023-05-02T04:28:06.562Z,3.88
2023-05-02T04:30:33.176Z,4.72
2023-05-02T04:32:59.743Z,4.55
2023-05-02T04:35:26.578Z,4.25
2023-05-02T04:37:53.085Z,3.72
2023-05-02T04:40:19.554Z,3.88
2023-05-02T04:42:46.375Z,3.97
2023-05-02T04:45:12.941Z,4.07
2023-05-02T04:47:40.168Z,3.95
2023-05-02T04:50:07.320Z,4.22
2023-05-02T04:52:33.816Z,4.53
2023-05-02T04:55:00.392Z,3.67
2023-05-02T04:57:27.009Z,4.05
2023-05-02T04:59:54.156Z,4.10
2023-05-02T05:02:21.310Z,4.15
2023-05-02T05:04:48.033Z,4.53
2023-05-02T05:07:14.619Z,3.72
2023-05-02T05:09:41.107Z,4.00
2023-05-02T05:12:07.738Z,4.65
2023-05-02T05:14:34.583Z,4.40
2023-05-02T05:17:04.249Z,4.90
2023-05-02T05:19:31.099Z,5.68
2023-05-02T05:21:57.666Z,4.78
2023-05-02T05:24:24.207Z,4.72
2023-05-02T05:26:50.744Z,4.88
2023-05-02T05:29:20.345Z,4.75
2023-05-02T05:31:50.345Z,4.90
2023-05-02T05:34:17.055Z,4.97
2023-05-02T05:36:46.331Z,4.30
2023-05-02T05:39:13.315Z,4.38
2023-05-02T05:41:42.155Z,5.20
2023-05-02T05:44:08.665Z,4.45
2023-05-02T05:46:38.390Z,4.38
2023-05-02T05:49:05.029Z,5.20
2023-05-02T05:51:31.733Z,4.70
2023-05-02T05:53:58.353Z,4.50
2023-05-02T05:56:26.379Z,4.65
2023-05-02T05:58:55.989Z,4.18
2023-05-02T06:01:25.594Z,3.58
2023-05-02T06:03:52.295Z,3.97
2023-05-02T06:06:21.549Z,3.55
2023-05-02T06:08:48.456Z,3.88
2023-05-02T06:11:18.213Z,3.58
2023-05-02T06:13:44.929Z,3.28
2023-05-02T06:16:13.964Z,3.17
2023-05-02T06:18:40.670Z,2.95
2023-05-02T06:21:10.711Z,3.42
2023-05-02T06:23:37.941Z,3.55
2023-05-02T06:26:07.647Z,3.35
2023-05-02T06:28:35.105Z,2.70
2023-05-02T06:31:02.580Z,2.58
2023-05-02T06:33:29.617Z,2.78
2023-05-02T06:35:56.157Z,2.72
2023-05-02T06:38:24.932Z,3.17
2023-05-02T06:40:51.536Z,2.67
2023-05-02T06:43:18.199Z,2.42
2023-05-02T06:45:47.751Z,2.38
2023-05-02T06:48:14.465Z,2.65
2023-05-02T06:50:41.511Z,2.05
2023-05-02T06:53:08.101Z,1.50
2023-05-02T06:55:34.719Z,2.05
2023-05-02T06:58:04.407Z,1.48
2023-05-02T07:00:31.211Z,1.33
2023-05-02T07:02:58.175Z,1.35
2023-05-02T07:05:24.705Z,1.10
2023-05-02T07:07:51.196Z,1.55
2023-05-02T07:10:17.758Z,1.30
2023-05-02T07:12:44.319Z,1.70
2023-05-02T07:15:11.053Z,1.27
2023-05-02T07:17:37.701Z,1.58
2023-05-02T07:20:04.749Z,1.15
2023-05-02T07:22:32.194Z,0.98
2023-05-02T07:24:59.314Z,1.05
2023-05-02T07:27:25.904Z,0.80
2023-05-02T07:29:52.428Z,1.10
2023-05-02T07:32:19.950Z,1.08
2023-05-02T07:34:46.480Z,1.15
2023-05-02T07:37:13.332Z,1.10
2023-05-02T07:39:39.903Z,1.20
2023-05-02T07:42:06.790Z,1.05
2023-05-02T07:44:36.945Z,1.10
2023-05-02T07:47:03.636Z,1.00
2023-05-02T07:49:31.175Z,1.23
2023-05-02T07:51:58.034Z,0.90
2023-05-02T07:54:27.799Z,1.00
2023-05-02T07:56:55.128Z,1.02
2023-05-02T07:59:21.668Z,1.20
2023-05-02T08:01:48.229Z,0.95
2023-05-02T08:04:15.019Z,1.20
2023-05-02T08:06:42.470Z,1.80
2023-05-02T08:09:09.555Z,1.20
2023-05-02T08:11:36.210Z,1.77
2023-05-02T08:14:02.849Z,1.40
2023-05-02T08:16:29.373Z,1.20
2023-05-02T08:18:56.183Z,1.27
2023-05-02T08:21:22.875Z,1.30
2023-05-02T08:23:49.557Z,1.17
2023-05-02T08:26:19.007Z,1.25
2023-05-02T08:28:46.202Z,1.00
2023-05-02T08:31:12.814Z,1.20
2023-05-02T08:33:39.420Z,1.10
2023-05-02T08:36:15.640Z,1.40
2023-05-02T08:38:42.486Z,0.88
2023-05-02T08:41:17.022Z,0.88
2023-05-02T08:43:43.793Z,1.10
2023-05-02T08:46:10.885Z,0.90
2023-05-02T08:48:37.681Z,0.90
2023-05-02T08:51:04.733Z,1.05
2023-05-02T08:53:35.860Z,1.10
2023-05-02T08:56:02.683Z,1.08
2023-05-02T08:58:32.173Z,0.80
2023-05-02T09:01:03.818Z,0.80
2023-05-02T09:03:34.069Z,0.75
2023-05-02T09:06:07.389Z,0.80
2023-05-02T09:08:34.679Z,0.70
2023-05-02T09:11:04.415Z,0.90
2023-05-02T09:13:32.006Z,0.95
2023-05-02T09:15:59.782Z,1.00
2023-05-02T09:18:30.421Z,0.80
2023-05-02T09:20:58.236Z,0.80
2023-05-02T09:23:34.740Z,1.20
2023-05-02T09:26:01.587Z,0.90
2023-05-02T09:28:54.646Z,1.15
2023-05-02T09:33:52.200Z,1.00
2023-05-02T09:36:19.689Z,0.98
2023-05-02T09:38:47.062Z,1.08
2023-05-02T09:41:13.737Z,1.00
2023-05-02T09:43:40.811Z,1.10
2023-05-02T09:46:08.263Z,0.90
2023-05-02T09:49:08.063Z,1.20
2023-05-02T09:51:34.697Z,1.30
2023-05-02T09:54:01.295Z,0.90
2023-05-02T09:56:28.031Z,1.08
2023-05-02T09:59:16.481Z,1.30
2023-05-02T10:01:44.631Z,1.10
2023-05-02T10:04:18.994Z,1.17
2023-05-02T10:06:46.061Z,1.00
2023-05-02T10:09:15.409Z,1.20
2023-05-02T10:11:44.864Z,1.40
2023-05-02T10:14:11.647Z,1.20
2023-05-02T10:16:49.221Z,2.00
2023-05-02T10:19:17.203Z,1.90
2023-05-02T10:21:43.694Z,1.20
2023-05-02T10:24:10.207Z,1.02
2023-05-02T10:26:36.687Z,1.65
2023-05-02T10:29:03.156Z,2.20
2023-05-02T10:31:33.094Z,1.77
2023-05-02T10:33:59.861Z,1.65
2023-05-02T10:36:27.139Z,2.30
2023-05-02T10:38:53.881Z,2.00
2023-05-02T10:41:24.767Z,1.88
2023-05-02T10:43:51.353Z,2.17
2023-05-02T10:46:33.179Z,1.77
2023-05-02T10:49:12.619Z,2.20
2023-05-02T10:51:39.856Z,2.28
2023-05-02T10:54:19.273Z,1.50
2023-05-02T10:57:07.823Z,1.45
2023-05-02T10:59:35.266Z,2.00
2023-05-02T11:02:02.774Z,2.40
2023-05-02T11:05:01.039Z,1.40
2023-05-02T11:07:28.191Z,2.05
2023-05-02T11:10:10.958Z,3.30
2023-05-02T11:12:47.683Z,1.50
2023-05-02T11:15:34.731Z,2.63
2023-05-02T11:18:07.879Z,3.10
2023-05-02T11:20:35.039Z,2.30
2023-05-02T11:23:11.021Z,2.55
2023-05-02T11:25:38.198Z,2.33
2023-05-02T11:28:05.860Z,2.13
2023-05-02T11:30:45.813Z,3.17
2023-05-02T11:33:13.134Z,3.63
2023-05-02T11:35:41.698Z,4.13
2023-05-02T11:38:12.181Z,3.60
2023-05-02T11:40:38.705Z,2.03
2023-05-02T11:43:15.506Z,3.42
2023-05-02T11:45:45.069Z,3.42
2023-05-02T11:48:13.077Z,3.33
2023-05-02T11:50:48.664Z,3.75
2023-05-02T11:53:17.167Z,4.50
2023-05-02T11:55:50.746Z,6.10
2023-05-02T11:58:17.956Z,5.70
2023-05-02T12:00:47.964Z,4.20
2023-05-02T12:03:20.824Z,4.88
2023-05-02T12:05:47.533Z,5.10
2023-05-02T12:08:20.965Z,5.25
2023-05-02T12:10:47.478Z,2.78
2023-05-02T12:13:14.034Z,4.35
2023-05-02T12:15:40.844Z,5.25
2023-05-02T12:18:07.506Z,6.20
2023-05-02T12:20:34.621Z,5.00
2023-05-02T12:23:01.155Z,2.65
2023-05-02T12:25:27.683Z,3.25
2023-05-02T12:28:01.032Z,4.22
2023-05-02T12:30:28.004Z,5.05
2023-05-02T12:32:59.007Z,3.70
2023-05-02T12:35:26.044Z,4.97
2023-05-02T12:37:52.762Z,3.92
2023-05-02T12:40:19.266Z,2.90
2023-05-02T12:42:59.081Z,2.42
2023-05-02T12:45:27.274Z,3.28
2023-05-02T12:47:53.802Z,2.95
2023-05-02T12:50:20.361Z,2.60
2023-05-02T12:52:51.119Z,6.20
2023-05-02T12:55:21.279Z,4.70
2023-05-02T12:57:47.900Z,2.53
2023-05-02T13:00:16.706Z,2.67
2023-05-02T13:02:43.381Z,2.13
2023-05-02T13:05:16.572Z,2.53
2023-05-02T13:07:43.125Z,1.95
2023-05-02T13:10:09.929Z,1.83
2023-05-02T13:12:38.524Z,2.28
2023-05-02T13:15:05.655Z,2.10
2023-05-02T13:17:32.382Z,2.60
2023-05-02T13:20:01.961Z,2.55
2023-05-02T13:22:28.888Z,2.35
2023-05-02T13:24:55.397Z,2.42
2023-05-02T13:27:25.295Z,1.88
2023-05-02T13:29:51.840Z,1.73
2023-05-02T13:32:18.712Z,1.80
2023-05-02T13:34:45.329Z,1.70
2023-05-02T13:37:12.171Z,1.98
2023-05-02T13:39:38.788Z,1.73
2023-05-02T13:42:06.495Z,1.33
2023-05-02T13:44:33.128Z,1.50
2023-05-02T13:46:59.849Z,1.67
2023-05-02T13:49:26.518Z,1.65
2023-05-02T13:51:53.043Z,1.40
2023-05-02T13:54:19.540Z,1.67
2023-05-02T13:56:46.208Z,1.90
2023-05-02T13:59:12.733Z,1.27
2023-05-02T14:01:42.698Z,1.23
2023-05-02T14:04:09.425Z,1.23
2023-05-02T14:06:36.364Z,1.05
2023-05-02T14:09:03.168Z,0.98
2023-05-02T14:11:29.784Z,0.70
2023-05-02T14:13:58.418Z,1.10
2023-05-02T14:16:25.092Z,1.10
2023-05-02T14:18:51.830Z,1.23
2023-05-02T14:21:18.650Z,1.30
2023-05-02T14:23:45.210Z,1.00
2023-05-02T14:26:12.825Z,1.02
2023-05-02T14:28:40.432Z,0.70
2023-05-02T14:31:07.511Z,0.80
2023-05-02T14:33:34.393Z,1.10
2023-05-02T14:36:01.143Z,0.70
2023-05-02T14:38:27.783Z,1.02
2023-05-02T14:40:55.164Z,1.40
2023-05-02T14:43:21.719Z,1.67
2023-05-02T14:45:48.311Z,1.60
2023-05-02T14:48:17.076Z,1.33
2023-05-02T14:50:44.037Z,1.05
2023-05-02T14:53:11.768Z,1.30
2023-05-02T14:55:38.972Z,1.20
2023-05-02T14:58:11.953Z,0.80
2023-05-02T15:00:38.737Z,0.82
2023-05-02T15:03:07.593Z,0.70
2023-05-02T15:05:34.843Z,0.80
2023-05-02T15:08:01.579Z,0.82
2023-05-02T15:10:28.449Z,0.95
2023-05-02T15:12:54.964Z,0.90
2023-05-02T15:15:25.425Z,1.00
2023-05-02T15:17:52.166Z,1.48
2023-05-02T15:20:18.801Z,1.05
2023-05-02T15:22:45.439Z,1.10
2023-05-02T15:25:12.001Z,1.20
2023-05-02T15:27:38.520Z,1.88
2023-05-02T15:30:06.671Z,0.90
2023-05-02T15:32:33.335Z,1.02
2023-05-02T15:34:59.866Z,1.45
2023-05-02T15:37:26.429Z,1.23
2023-05-02T15:39:52.967Z,1.40
2023-05-02T15:42:19.465Z,1.15
2023-05-02T15:44:45.963Z,0.90
2023-05-02T15:47:12.460Z,1.20
2023-05-02T15:49:39.494Z,1.05
2023-05-02T15:52:06.006Z,0.95
2023-05-02T15:54:32.898Z,1.00
2023-05-02T15:56:59.582Z,1.20
2023-05-02T15:59:26.226Z,1.00
2023-05-02T16:01:52.809Z,1.10
2023-05-02T16:04:19.358Z,1.30
2023-05-02T16:06:46.008Z,1.50
2023-05-02T16:09:13.042Z,1.17
2023-05-02T16:11:39.699Z,1.65
2023-05-02T16:14:06.259Z,1.63
2023-05-02T16:16:32.975Z,2.17
2023-05-02T16:18:59.562Z,2.17
2023-05-02T16:21:26.160Z,1.67
2023-05-02T16:23:52.914Z,1.60
2023-05-02T16:26:20.895Z,1.50
2023-05-02T16:28:47.479Z,1.42
2023-05-02T16:31:15.209Z,1.13
2023-05-02T16:33:42.988Z,1.33
2023-05-02T16:36:09.931Z,1.05
2023-05-02T16:38:36.745Z,1.60
2023-05-02T16:41:04.054Z,1.80
2023-05-02T16:43:30.578Z,1.83
2023-05-02T16:46:01.539Z,1.88
2023-05-02T16:48:28.285Z,2.20
2023-05-02T16:50:54.892Z,2.20
2023-05-02T16:53:21.601Z,3.13
2023-05-02T16:55:48.383Z,5.43
2023-05-02T16:58:14.921Z,5.40
2023-05-02T17:00:41.498Z,4.00
2023-05-02T17:03:08.577Z,2.00
2023-05-02T17:05:35.752Z,1.73
2023-05-02T17:08:02.392Z,1.83
2023-05-02T17:10:28.872Z,1.40
2023-05-02T17:12:56.387Z,1.90
2023-05-02T17:15:22.986Z,2.10
2023-05-02T17:17:49.512Z,1.90
2023-05-02T17:20:17.439Z,1.60
2023-05-02T17:22:43.946Z,1.90
2023-05-02T17:25:11.003Z,1.40
2023-05-02T17:27:40.165Z,1.70
2023-05-02T17:30:07.879Z,1.77
2023-05-02T17:32:35.533Z,1.67
2023-05-02T17:35:02.163Z,1.70
2023-05-02T17:37:28.927Z,2.70
2023-05-02T17:39:55.546Z,1.98
2023-05-02T17:42:22.133Z,2.53
2023-05-02T17:44:48.900Z,2.67
2023-05-02T17:47:16.954Z,2.70
2023-05-02T17:49:43.601Z,2.67
2023-05-02T17:52:10.110Z,3.65
2023-05-02T17:54:36.660Z,4.63
2023-05-02T17:57:03.288Z,6.20
2023-05-02T17:59:29.872Z,4.88
2023-05-02T18:01:57.328Z,4.45
2023-05-02T18:04:25.491Z,3.22
2023-05-02T18:06:52.078Z,4.05
2023-05-02T18:09:18.613Z,3.10
2023-05-02T18:11:45.148Z,3.60
2023-05-02T18:14:11.733Z,3.40
2023-05-02T18:16:38.852Z,4.18
2023-05-02T18:19:05.478Z,3.85
2023-05-02T18:21:35.474Z,4.00
2023-05-02T18:24:02.128Z,4.47
2023-05-02T18:26:28.666Z,4.35
2023-05-02T18:28:55.151Z,6.03
2023-05-02T18:31:21.899Z,5.65
2023-05-02T18:33:48.479Z,6.15
2023-05-02T18:36:19.273Z,5.03
2023-05-02T18:38:46.061Z,5.45
2023-05-02T18:41:12.901Z,5.20
2023-05-02T18:43:39.442Z,4.55
2023-05-02T18:46:06.034Z,4.30
2023-05-02T18:48:32.564Z,4.30
2023-05-02T18:50:59.296Z,4.40
2023-05-02T18:53:26.552Z,4.38
2023-05-02T18:56:02.492Z,4.63
2023-05-02T18:58:32.020Z,4.85
2023-05-02T19:01:02.676Z,6.22
2023-05-02T19:03:33.251Z,9.23
2023-05-02T19:05:59.906Z,9.40
2023-05-02T19:08:26.760Z,10.13
2023-05-02T19:10:53.863Z,9.98
2023-05-02T19:13:20.491Z,10.20
2023-05-02T19:15:52.968Z,8.82
2023-05-02T19:18:23.130Z,7.90
2023-05-02T19:20:50.039Z,8.30
2023-05-02T19:23:20.456Z,8.10
2023-05-02T19:25:47.472Z,9.00
2023-05-02T19:28:18.073Z,8.60
2023-05-02T19:30:46.215Z,8.80
2023-05-02T19:33:12.888Z,9.00
2023-05-02T19:35:39.517Z,8.10
2023-05-02T19:38:09.249Z,8.38
2023-05-02T19:40:36.111Z,7.95
2023-05-02T19:43:02.668Z,10.10
2023-05-02T19:45:29.454Z,8.75
2023-05-02T19:47:56.476Z,8.25
2023-05-02T19:50:23.148Z,8.00
2023-05-02T19:52:50.278Z,7.40
2023-05-02T19:55:16.904Z,6.45
2023-05-02T19:57:44.713Z,7.10
2023-05-02T20:00:12.857Z,7.05
2023-05-02T20:02:39.623Z,7.05
2023-05-02T20:05:06.463Z,8.35
2023-05-02T20:07:32.997Z,12.55
2023-05-02T20:09:59.762Z,11.73
2023-05-02T20:12:26.416Z,10.68
2023-05-02T20:14:52.926Z,11.85
2023-05-02T20:17:19.457Z,11.43
2023-05-02T20:19:46.201Z,10.90
2023-05-02T20:22:12.713Z,9.68
2023-05-02T20:24:39.440Z,8.65
2023-05-02T20:27:05.994Z,6.47
2023-05-02T20:29:32.499Z,7.65
2023-05-02T20:31:59.501Z,9.80
2023-05-02T20:34:26.198Z,11.88
2023-05-02T20:36:53.004Z,12.55
2023-05-02T20:39:21.955Z,12.55
2023-05-02T20:41:51.437Z,12.15
2023-05-02T20:44:20.528Z,11.65
2023-05-02T20:46:47.072Z,12.40
2023-05-02T20:49:13.568Z,12.45
2023-05-02T20:51:41.284Z,12.18
2023-05-02T20:54:07.760Z,12.90
2023-05-02T20:56:34.413Z,14.10
2023-05-02T20:59:00.953Z,13.02
2023-05-02T21:01:27.591Z,12.90
2023-05-02T21:03:54.303Z,13.10
2023-05-02T21:06:21.711Z,13.70
2023-05-02T21:08:48.386Z,15.48
2023-05-02T21:11:15.045Z,15.85
2023-05-02T21:13:42.196Z,15.52
2023-05-02T21:16:15.459Z,16.70
2023-05-02T21:18:42.045Z,16.15
2023-05-02T21:21:08.772Z,16.35
2023-05-02T21:23:35.625Z,15.52
2023-05-02T21:26:02.052Z,15.68
2023-05-02T21:28:29.199Z,15.73
2023-05-02T21:30:55.718Z,17.23
2023-05-02T21:33:22.292Z,17.55
2023-05-02T21:35:54.659Z,17.58
2023-05-02T21:38:21.201Z,18.25
2023-05-02T21:40:47.798Z,20.25
2023-05-02T21:43:14.363Z,19.02
2023-05-02T21:45:47.448Z,18.92
2023-05-02T21:48:14.268Z,20.38
2023-05-02T21:50:41.287Z,18.92
2023-05-02T21:53:07.833Z,19.77
2023-05-02T21:55:36.655Z,19.70
2023-05-02T21:58:06.659Z,19.75
2023-05-02T22:00:33.529Z,19.92
2023-05-02T22:03:01.795Z,20.58
2023-05-02T22:05:28.337Z,21.27
2023-05-02T22:07:56.345Z,19.58
2023-05-02T22:10:23.097Z,20.30
2023-05-02T22:12:49.595Z,18.35
2023-05-02T22:15:16.128Z,19.08
2023-05-02T22:17:43.376Z,19.33
2023-05-02T22:20:13.139Z,19.10
2023-05-02T22:22:40.218Z,19.85
2023-05-02T22:25:07.017Z,19.90
2023-05-02T22:27:33.610Z,20.30
2023-05-02T22:30:00.493Z,19.17
2023-05-02T22:32:27.346Z,19.77
2023-05-02T22:34:53.832Z,18.73
2023-05-02T22:37:20.472Z,18.83
2023-05-02T22:39:47.098Z,17.90
2023-05-02T22:42:13.673Z,19.17
2023-05-02T22:44:53.238Z,18.38
2023-05-02T22:47:21.650Z,18.50
2023-05-02T22:49:48.203Z,19.52
2023-05-02T22:52:15.051Z,18.58
2023-05-02T22:54:41.583Z,18.95
2023-05-02T22:57:08.196Z,18.30
2023-05-02T22:59:34.747Z,18.83
2023-05-02T23:02:01.375Z,18.85
2023-05-02T23:04:27.983Z,16.27
2023-05-02T23:06:54.597Z,17.25
2023-05-02T23:09:21.394Z,17.05
2023-05-02T23:11:48.012Z,17.00
2023-05-02T23:14:15.248Z,17.10
2023-05-02T23:16:41.999Z,17.42
2023-05-02T23:19:08.578Z,15.98
2023-05-02T23:21:35.122Z,16.55
2023-05-02T23:24:01.651Z,16.05
2023-05-02T23:26:28.188Z,16.83
2023-05-02T23:28:54.671Z,16.05
2023-05-02T23:31:21.337Z,15.23
2023-05-02T23:33:47.885Z,16.05
2023-05-02T23:36:14.437Z,16.17
2023-05-02T23:38:41.542Z,17.10
2023-05-02T23:41:08.020Z,17.63
2023-05-02T23:43:34.609Z,17.42
2023-05-02T23:46:02.165Z,17.50
2023-05-02T23:48:28.704Z,17.08
2023-05-02T23:50:55.208Z,15.98
2023-05-02T23:53:21.878Z,16.42
2023-05-02T23:55:48.462Z,16.10
2023-05-02T23:58:14.992Z,14.15
